Time;durP1;ratioP1;P1;durP2;ratioP2;P2;SDS_P1;SDS_P2;PMS_P1;PMS_P2;Temp;Humidity;BMP_temperature;BMP_pressure;BME280_temperature;BME280_humidity;BME280_pressure;Samples;Min_cycle;Max_cycle;Signal;HPM_P1;HPM_P2
2024/04/11 00:01:55;;;;;;;8.30;1.83;;;10.80;99.90;;;;;;5510737;26;20025;-70
2024/04/11 00:04:23;;;;;;;5.45;2.05;;;10.80;99.90;;;;;;5506405;26;20025;-70
2024/04/11 00:06:50;;;;;;;6.75;1.60;;;10.80;99.90;;;;;;5477765;26;20023;-70
2024/04/11 00:09:20;;;;;;;9.00;1.92;;;10.80;99.90;;;;;;5505348;26;20485;-71
2024/04/11 00:11:47;;;;;;;8.70;1.70;;;10.80;99.90;;;;;;5507261;26;20479;-71
2024/04/11 00:14:14;;;;;;;7.28;1.60;;;10.90;99.90;;;;;;5502257;26;20033;-71
2024/04/11 00:16:41;;;;;;;8.85;2.00;;;10.90;99.90;;;;;;5508433;26;20051;-71
2024/04/11 00:19:08;;;;;;;9.85;1.80;;;10.90;99.90;;;;;;5507661;26;20022;-71
2024/04/11 00:21:35;;;;;;;6.32;1.40;;;10.90;99.90;;;;;;5509438;26;20029;-71
2024/04/11 00:24:02;;;;;;;7.80;1.75;;;10.90;99.90;;;;;;5507068;26;20018;-71
2024/04/11 00:26:31;;;;;;;7.70;1.80;;;10.90;99.90;;;;;;5496304;26;20023;-71
2024/04/11 00:28:58;;;;;;;5.75;1.52;;;11.00;99.90;;;;;;5504642;26;20034;-71
2024/04/11 00:31:25;;;;;;;7.50;1.58;;;11.00;99.90;;;;;;5501982;26;20861;-71
2024/04/11 00:33:56;;;;;;;7.57;1.50;;;11.00;99.90;;;;;;5496326;26;20026;-72
2024/04/11 00:36:23;;;;;;;5.55;1.48;;;11.00;99.90;;;;;;5501005;26;20039;-71
2024/04/11 00:38:51;;;;;;;5.60;1.35;;;11.00;99.90;;;;;;5510907;26;20069;-71
2024/04/11 00:41:19;;;;;;;6.22;1.65;;;11.00;99.90;;;;;;5501558;26;20486;-70
2024/04/11 00:43:47;;;;;;;6.07;1.08;;;11.10;99.90;;;;;;5506295;26;20038;-71
2024/04/11 00:46:15;;;;;;;5.32;1.15;;;11.10;99.90;;;;;;5506853;26;20447;-71
2024/04/11 00:48:42;;;;;;;5.90;1.30;;;11.10;99.90;;;;;;5471392;26;20007;-70
2024/04/11 00:51:10;;;;;;;4.53;1.20;;;11.10;99.90;;;;;;5506850;26;20037;-71
2024/04/11 00:53:37;;;;;;;6.80;1.08;;;11.10;99.90;;;;;;5503130;26;20022;-71
2024/04/11 00:56:04;;;;;;;7.32;1.40;;;11.10;99.90;;;;;;5502673;26;20027;-72
2024/04/11 00:58:32;;;;;;;7.68;1.20;;;11.10;99.90;;;;;;5504930;26;20034;-71
2024/04/11 01:00:59;;;;;;;4.53;1.13;;;11.10;99.90;;;;;;5507460;26;20034;-71
2024/04/11 01:03:26;;;;;;;7.30;1.30;;;11.10;99.90;;;;;;5476688;26;20033;-71
2024/04/11 01:05:53;;;;;;;6.45;1.20;;;11.20;99.90;;;;;;5487630;26;20025;-71
2024/04/11 01:08:26;;;;;;;6.90;1.50;;;11.10;99.90;;;;;;5503972;26;20046;-71
2024/04/11 01:10:53;;;;;;;7.20;1.23;;;11.20;99.90;;;;;;5500184;26;20049;-71
2024/04/11 01:13:23;;;;;;;5.35;1.00;;;11.20;99.90;;;;;;5498698;26;20374;-71
2024/04/11 01:15:50;;;;;;;6.57;1.42;;;11.20;99.90;;;;;;5504826;26;20025;-71
2024/04/11 01:18:19;;;;;;;5.78;1.25;;;11.20;99.90;;;;;;5502158;26;20023;-71
2024/04/11 01:20:46;;;;;;;6.38;1.10;;;11.30;99.90;;;;;;5469589;26;20494;-71
2024/04/11 01:23:13;;;;;;;5.18;1.30;;;11.30;99.90;;;;;;5502337;26;20041;-70
2024/04/11 01:25:40;;;;;;;4.93;0.82;;;11.30;99.90;;;;;;5509650;26;20033;-71
2024/04/11 01:28:09;;;;;;;4.90;0.80;;;11.30;99.90;;;;;;5499416;26;20025;-71
2024/04/11 01:30:36;;;;;;;8.00;1.15;;;11.30;99.90;;;;;;5504543;26;20030;-70
2024/04/11 01:33:09;;;;;;;5.90;0.90;;;11.30;99.90;;;;;;5507993;26;20017;-71
2024/04/11 01:35:37;;;;;;;4.50;0.70;;;11.30;99.90;;;;;;5509893;26;20058;-71
2024/04/11 01:38:05;;;;;;;7.38;1.17;;;11.40;99.90;;;;;;5507684;26;20021;-70
2024/04/11 01:40:41;;;;;;;5.15;0.82;;;11.40;99.90;;;;;;5507033;26;20369;-70
2024/04/11 01:43:09;;;;;;;3.80;0.77;;;11.40;99.90;;;;;;5505921;26;20026;-70
2024/04/11 01:45:37;;;;;;;4.63;0.88;;;11.50;99.90;;;;;;5502763;26;20018;-71
2024/04/11 01:48:05;;;;;;;5.82;1.08;;;11.50;99.90;;;;;;5506515;26;20039;-71
2024/04/11 01:50:31;;;;;;;4.63;0.98;;;11.50;99.90;;;;;;5506603;26;20782;-71
2024/04/11 01:52:59;;;;;;;4.20;1.08;;;11.60;99.90;;;;;;5501435;26;20373;-71
2024/04/11 01:55:26;;;;;;;7.68;1.30;;;11.60;99.90;;;;;;5505939;26;20366;-71
2024/04/11 01:57:53;;;;;;;7.13;0.88;;;11.60;99.90;;;;;;5504396;26;20034;-71
2024/04/11 02:00:20;;;;;;;4.70;1.00;;;11.60;99.90;;;;;;5512706;26;20052;-71
2024/04/11 02:02:49;;;;;;;4.82;0.93;;;11.60;99.90;;;;;;5485940;26;20033;-71
2024/04/11 02:05:20;;;;;;;4.85;0.82;;;11.70;99.90;;;;;;5500757;26;20054;-71
2024/04/11 02:07:47;;;;;;;5.03;0.90;;;11.70;99.90;;;;;;5498001;26;20031;-71
2024/04/11 02:10:15;;;;;;;4.72;1.13;;;11.70;99.90;;;;;;5495040;26;20033;-72
2024/04/11 02:12:42;;;;;;;7.30;0.90;;;11.70;99.90;;;;;;5498935;26;20382;-71
2024/04/11 02:15:10;;;;;;;6.93;1.00;;;11.70;99.90;;;;;;5492806;26;20022;-71
2024/04/11 02:17:37;;;;;;;7.20;1.25;;;11.80;99.90;;;;;;5508279;26;20314;-71
2024/04/11 02:20:10;;;;;;;7.25;0.98;;;11.80;99.90;;;;;;5501358;26;20030;-71
2024/04/11 02:22:37;;;;;;;6.60;1.05;;;11.80;99.90;;;;;;5511527;26;20025;-71
2024/04/11 02:25:07;;;;;;;5.10;0.70;;;11.80;99.90;;;;;;5499231;26;20026;-71
2024/04/11 02:27:34;;;;;;;5.90;1.23;;;11.80;99.90;;;;;;5505188;26;20638;-72
2024/04/11 02:30:03;;;;;;;4.03;0.60;;;11.80;99.90;;;;;;5500033;26;20346;-72
2024/04/11 02:32:30;;;;;;;6.43;0.90;;;11.90;99.90;;;;;;5510162;26;20381;-71
2024/04/11 02:34:57;;;;;;;6.03;1.10;;;11.80;99.90;;;;;;5504233;26;20033;-71
2024/04/11 02:37:24;;;;;;;5.70;1.00;;;11.90;99.90;;;;;;5508871;26;20025;-71
2024/04/11 02:39:51;;;;;;;4.95;1.00;;;11.90;99.90;;;;;;5506695;26;20525;-71
2024/04/11 02:42:18;;;;;;;5.68;1.25;;;11.90;99.90;;;;;;5509054;26;20034;-71
2024/04/11 02:44:47;;;;;;;4.45;1.20;;;11.90;99.90;;;;;;5504774;26;20385;-71
2024/04/11 02:47:15;;;;;;;11.43;1.20;;;11.90;99.90;;;;;;5497472;26;20362;-73
2024/04/11 02:49:42;;;;;;;5.07;0.98;;;11.90;99.90;;;;;;5500837;26;19994;-71
2024/04/11 02:52:08;;;;;;;7.57;1.50;;;12.00;99.90;;;;;;5505464;26;20437;-71
2024/04/11 02:54:36;;;;;;;6.75;1.02;;;12.00;99.90;;;;;;5501788;26;20380;-71
2024/04/11 02:57:03;;;;;;;8.07;0.93;;;12.00;99.90;;;;;;5500371;26;20431;-71
2024/04/11 02:59:30;;;;;;;5.53;0.70;;;12.00;99.90;;;;;;5507941;26;20485;-70
2024/04/11 03:01:57;;;;;;;5.38;0.85;;;12.00;99.90;;;;;;5505975;26;20030;-71
2024/04/11 03:04:24;;;;;;;4.68;0.90;;;11.90;99.90;;;;;;5498951;26;20022;-71
2024/04/11 03:06:51;;;;;;;5.45;1.00;;;12.00;99.90;;;;;;5499378;26;20412;-71
2024/04/11 03:09:18;;;;;;;5.53;0.80;;;11.90;99.90;;;;;;5502242;26;20026;-71
2024/04/11 03:11:45;;;;;;;5.38;1.05;;;11.90;99.90;;;;;;5489909;26;20022;-72
2024/04/11 03:14:12;;;;;;;7.18;1.10;;;11.90;99.90;;;;;;5507967;26;20037;-72
2024/04/11 03:16:39;;;;;;;6.07;1.02;;;12.00;99.90;;;;;;5503950;26;20022;-71
2024/04/11 03:19:06;;;;;;;7.43;1.15;;;12.00;99.90;;;;;;5503192;26;20026;-71
2024/04/11 03:21:34;;;;;;;5.05;1.15;;;11.90;99.90;;;;;;5509377;26;20291;-71
2024/04/11 03:24:01;;;;;;;6.03;1.00;;;12.00;99.90;;;;;;5500945;26;20033;-72
2024/04/11 03:26:28;;;;;;;4.72;0.77;;;12.00;99.90;;;;;;5495589;26;20795;-71
2024/04/11 03:28:56;;;;;;;6.22;1.23;;;12.00;99.90;;;;;;5503772;26;20025;-72
2024/04/11 03:31:22;;;;;;;4.45;0.98;;;12.00;99.90;;;;;;5506297;26;20056;-71
2024/04/11 03:33:51;;;;;;;8.90;1.60;;;12.00;99.90;;;;;;5505383;26;20567;-72
2024/04/11 03:36:19;;;;;;;7.05;1.35;;;12.00;99.90;;;;;;5512473;26;20061;-71
2024/04/11 03:38:46;;;;;;;6.22;1.13;;;12.00;99.90;;;;;;5514036;26;20025;-71
2024/04/11 03:41:14;;;;;;;5.95;1.35;;;12.00;99.90;;;;;;5498050;26;20033;-71
2024/04/11 03:43:41;;;;;;;6.05;1.17;;;12.00;99.90;;;;;;5500569;26;20018;-71
2024/04/11 03:46:12;;;;;;;6.32;1.42;;;12.10;99.90;;;;;;5499079;26;20093;-71
2024/04/11 03:48:39;;;;;;;5.18;1.27;;;12.00;99.90;;;;;;5499125;26;20025;-71
2024/04/11 03:51:08;;;;;;;7.50;1.10;;;12.10;99.90;;;;;;5503000;26;20025;-71
2024/04/11 03:53:34;;;;;;;5.50;1.33;;;12.10;99.90;;;;;;5504284;26;20034;-72
2024/04/11 03:56:07;;;;;;;8.20;1.73;;;12.10;99.90;;;;;;5497420;26;20173;-71
2024/04/11 03:58:37;;;;;;;5.43;1.25;;;12.20;99.90;;;;;;5496508;26;20041;-72
2024/04/11 04:01:05;;;;;;;4.80;1.10;;;12.20;99.90;;;;;;5506580;26;20021;-71
2024/04/11 04:03:33;;;;;;;5.55;0.93;;;12.20;99.90;;;;;;5498970;26;20022;-71
2024/04/11 04:06:00;;;;;;;7.80;1.08;;;12.30;99.90;;;;;;5496679;26;20029;-72
2024/04/11 04:08:28;;;;;;;6.40;1.52;;;12.30;99.90;;;;;;5502336;26;19997;-72
2024/04/11 04:10:55;;;;;;;11.15;1.30;;;12.30;99.90;;;;;;5507205;26;20342;-71
2024/04/11 04:13:22;;;;;;;6.85;1.45;;;12.30;99.90;;;;;;5503547;26;20548;-71
2024/04/11 04:15:49;;;;;;;4.57;0.88;;;12.40;99.90;;;;;;5504745;26;20033;-72
2024/04/11 04:18:16;;;;;;;6.43;1.52;;;12.40;99.90;;;;;;5506168;26;20026;-72
2024/04/11 04:20:43;;;;;;;7.57;1.35;;;12.40;99.90;;;;;;5507762;26;20021;-72
2024/04/11 04:23:11;;;;;;;7.47;1.70;;;12.30;99.90;;;;;;5504403;26;20030;-72
2024/04/11 04:25:41;;;;;;;7.10;1.08;;;12.30;99.90;;;;;;5500805;26;20034;-72
2024/04/11 04:28:08;;;;;;;6.03;1.00;;;12.30;99.90;;;;;;5480616;26;20005;-72
2024/04/11 04:30:35;;;;;;;8.57;1.50;;;12.20;99.90;;;;;;5513678;26;20456;-72
2024/04/11 04:33:04;;;;;;;7.40;1.90;;;12.20;99.90;;;;;;5502146;26;20086;-72
2024/04/11 04:35:31;;;;;;;7.10;1.40;;;12.10;99.90;;;;;;5494841;26;20033;-72
2024/04/11 04:37:58;;;;;;;8.57;1.67;;;12.10;99.90;;;;;;5497715;26;20474;-72
2024/04/11 04:40:25;;;;;;;9.35;1.75;;;12.00;99.90;;;;;;5496349;26;20030;-72
2024/04/11 04:42:52;;;;;;;6.72;1.50;;;12.00;99.90;;;;;;5499445;26;20065;-72
2024/04/11 04:45:19;;;;;;;7.88;1.90;;;12.00;99.90;;;;;;5507950;26;20030;-72
2024/04/11 04:47:47;;;;;;;8.55;1.13;;;11.90;99.90;;;;;;5506977;26;20628;-72
2024/04/11 04:50:14;;;;;;;6.00;1.05;;;11.90;99.90;;;;;;5515633;26;20033;-72
2024/04/11 04:52:43;;;;;;;8.93;1.35;;;11.90;99.90;;;;;;5512465;26;20029;-72
2024/04/11 04:55:10;;;;;;;6.07;1.40;;;11.90;99.90;;;;;;5508161;26;20041;-72
2024/04/11 04:57:37;;;;;;;5.45;1.33;;;11.80;99.90;;;;;;5502379;26;20026;-72
2024/04/11 05:00:13;;;;;;;9.98;1.27;;;11.80;99.90;;;;;;5502468;26;20026;-72
2024/04/11 05:02:40;;;;;;;7.72;1.88;;;11.80;99.90;;;;;;5499050;26;20030;-72
2024/04/11 05:05:07;;;;;;;7.45;1.70;;;11.80;99.90;;;;;;5509973;26;20021;-73
2024/04/11 05:07:34;;;;;;;11.07;1.73;;;11.80;99.90;;;;;;5501223;26;20034;-72
2024/04/11 05:10:01;;;;;;;6.78;1.55;;;11.70;99.90;;;;;;5477883;26;20010;-72
2024/04/11 05:12:42;;;;;;;6.70;1.40;;;11.70;99.90;;;;;;5509934;26;20007;-71
2024/04/11 05:15:12;;;;;;;43.28;30.17;;;11.60;99.90;;;;;;5506400;26;20029;-71
2024/04/11 05:17:43;;;;;;;11.43;2.25;;;11.50;99.90;;;;;;5507677;26;20025;-73
2024/04/11 05:20:21;;;;;;;10.43;2.10;;;11.50;99.90;;;;;;5499470;26;20026;-74
2024/04/11 05:22:49;;;;;;;8.38;2.55;;;11.40;99.90;;;;;;5503120;26;20052;-74
2024/04/11 05:25:17;;;;;;;9.90;1.88;;;11.30;99.90;;;;;;5506595;26;20018;-75
2024/04/11 05:27:44;;;;;;;11.45;1.98;;;11.20;99.90;;;;;;5504079;26;20022;-77
2024/04/11 05:30:11;;;;;;;10.75;1.95;;;11.10;99.90;;;;;;5511177;26;20008;-77
2024/04/11 05:32:43;;;;;;;13.18;2.60;;;11.10;99.90;;;;;;5503254;26;20021;-77
2024/04/11 05:35:11;;;;;;;8.65;2.03;;;11.00;99.90;;;;;;5489361;26;20033;-77
2024/04/11 05:37:45;;;;;;;6.50;2.08;;;11.00;99.90;;;;;;5478687;26;20062;-77
2024/04/11 05:40:12;;;;;;;11.25;2.20;;;11.00;99.90;;;;;;5504720;26;20026;-77
2024/04/11 05:42:48;;;;;;;13.50;2.60;;;10.90;99.90;;;;;;5507206;26;20030;-77
2024/04/11 05:45:19;;;;;;;11.85;2.67;;;10.90;99.90;;;;;;5478460;26;20381;-77
2024/04/11 05:47:46;;;;;;;10.82;2.45;;;10.90;99.90;;;;;;5511842;26;20030;-77
2024/04/11 05:50:18;;;;;;;9.13;2.30;;;10.80;99.90;;;;;;5511823;26;20033;-77
2024/04/11 05:52:48;;;;;;;11.13;2.53;;;10.80;99.90;;;;;;5511075;26;20101;-77
2024/04/11 05:55:16;;;;;;;11.95;2.72;;;10.80;99.90;;;;;;5473066;26;20026;-77
2024/04/11 05:57:44;;;;;;;14.70;2.70;;;10.90;99.90;;;;;;5475854;26;20016;-77
2024/04/11 06:00:12;;;;;;;8.65;2.40;;;10.90;99.90;;;;;;5499891;26;20025;-76
2024/04/11 06:02:40;;;;;;;9.10;2.45;;;10.90;99.90;;;;;;5500651;26;20022;-76
2024/04/11 06:05:10;;;;;;;8.75;2.80;;;10.90;99.90;;;;;;5512341;26;20025;-75
2024/04/11 06:07:39;;;;;;;8.48;2.65;;;10.80;99.90;;;;;;5494678;26;20375;-76
2024/04/11 06:10:10;;;;;;;6.88;2.10;;;10.90;99.90;;;;;;5499824;26;20037;-76
2024/04/11 06:12:38;;;;;;;7.88;2.20;;;10.90;99.90;;;;;;5493713;26;20026;-76
2024/04/11 06:15:07;;;;;;;10.73;2.60;;;10.90;99.90;;;;;;5499576;26;20029;-77
2024/04/11 06:17:34;;;;;;;11.10;2.50;;;10.90;99.90;;;;;;5501548;26;20025;-76
2024/04/11 06:20:03;;;;;;;8.52;2.67;;;10.90;99.90;;;;;;5480927;26;20037;-76
2024/04/11 06:22:32;;;;;;;8.23;2.80;;;10.90;99.90;;;;;;5496035;26;20485;-77
2024/04/11 06:24:59;;;;;;;9.65;2.40;;;11.00;99.90;;;;;;5497330;26;20029;-77
2024/04/11 06:27:26;;;;;;;7.20;2.22;;;10.90;99.90;;;;;;5492390;26;20030;-77
2024/04/11 06:29:58;;;;;;;9.80;2.80;;;10.90;99.90;;;;;;5503638;26;20033;-77
2024/04/11 06:32:26;;;;;;;8.63;2.28;;;11.00;99.90;;;;;;5504107;26;20025;-76
2024/04/11 06:34:53;;;;;;;6.90;3.00;;;11.00;99.90;;;;;;5500471;26;20030;-77
2024/04/11 06:37:21;;;;;;;10.55;2.72;;;11.00;99.90;;;;;;5487096;26;20489;-76
2024/04/11 06:39:49;;;;;;;6.63;2.55;;;11.00;99.90;;;;;;5475887;26;20057;-77
2024/04/11 06:42:17;;;;;;;11.15;2.90;;;11.00;99.90;;;;;;5500466;26;20038;-77
2024/04/11 06:44:48;;;;;;;9.38;2.83;;;11.00;99.90;;;;;;5476221;26;20163;-78
2024/04/11 06:47:18;;;;;;;10.85;2.92;;;11.00;99.90;;;;;;5501708;26;20025;-77
2024/04/11 06:49:47;;;;;;;12.50;2.83;;;11.00;99.90;;;;;;5510859;26;20381;-77
2024/04/11 06:52:16;;;;;;;13.05;2.90;;;11.10;99.90;;;;;;5500181;26;20366;-76
2024/04/11 06:54:46;;;;;;;10.55;2.58;;;11.10;99.90;;;;;;5482172;26;20373;-77
2024/04/11 06:57:15;;;;;;;11.35;2.67;;;11.10;99.90;;;;;;5501637;26;20029;-77
2024/04/11 06:59:44;;;;;;;7.75;2.60;;;11.10;99.90;;;;;;5497657;26;20029;-77
2024/04/11 07:02:10;;;;;;;8.30;2.42;;;11.10;99.90;;;;;;5509920;26;20038;-77
2024/04/11 07:04:37;;;;;;;8.82;2.50;;;11.20;99.90;;;;;;5497622;26;20029;-77
2024/04/11 07:07:08;;;;;;;7.75;2.28;;;11.20;99.90;;;;;;5496853;26;20038;-76
2024/04/11 07:09:37;;;;;;;10.10;2.85;;;11.30;99.90;;;;;;5482762;26;20021;-77
2024/04/11 07:12:10;;;;;;;7.75;2.65;;;11.30;99.90;;;;;;5500310;26;20033;-78
2024/04/11 07:14:40;;;;;;;10.38;3.13;;;11.30;99.90;;;;;;5501128;26;20038;-77
2024/04/11 07:17:11;;;;;;;7.53;2.45;;;11.40;99.90;;;;;;5494316;26;20029;-77
2024/04/11 07:19:43;;;;;;;8.38;2.60;;;11.40;99.90;;;;;;5508593;26;20026;-79
2024/04/11 07:22:18;;;;;;;7.15;2.58;;;11.50;99.90;;;;;;5470600;26;20037;-77
2024/04/11 07:24:45;;;;;;;9.95;2.53;;;11.50;99.90;;;;;;5504785;26;20722;-77
2024/04/11 07:27:17;;;;;;;9.57;2.75;;;11.50;99.90;;;;;;5502890;26;20025;-78
2024/04/11 07:29:45;;;;;;;7.47;2.78;;;11.60;99.90;;;;;;5507336;26;20041;-77
2024/04/11 07:32:12;;;;;;;10.13;3.08;;;11.50;99.90;;;;;;5502596;26;20005;-76
2024/04/11 07:34:39;;;;;;;9.15;2.67;;;11.50;99.90;;;;;;5503668;26;20026;-77
2024/04/11 07:37:06;;;;;;;9.80;2.85;;;11.50;99.90;;;;;;5502140;26;20045;-77
2024/04/11 07:39:34;;;;;;;9.05;2.80;;;11.50;99.90;;;;;;5506265;26;20021;-77
2024/04/11 07:42:18;;;;;;;10.95;3.45;;;11.50;99.90;;;;;;5504473;26;20026;-76
2024/04/11 07:44:45;;;;;;;10.63;2.88;;;11.50;99.90;;;;;;5484624;26;20025;-77
2024/04/11 07:47:13;;;;;;;8.82;3.25;;;11.60;99.90;;;;;;5502759;26;20034;-77
2024/04/11 07:49:40;;;;;;;11.20;3.15;;;11.60;99.90;;;;;;5474195;26;20026;-77
2024/04/11 07:52:10;;;;;;;8.00;3.00;;;11.60;99.90;;;;;;5502392;26;20339;-77
2024/04/11 07:54:37;;;;;;;11.20;3.67;;;11.70;99.90;;;;;;5493066;26;20022;-76
2024/04/11 07:57:04;;;;;;;10.55;3.40;;;11.80;99.90;;;;;;5510471;26;20029;-77
2024/04/11 07:59:32;;;;;;;10.77;3.45;;;11.90;99.90;;;;;;5514098;26;20021;-77
2024/04/11 08:01:59;;;;;;;12.50;3.90;;;12.00;99.90;;;;;;5477904;26;20489;-77
2024/04/11 08:04:27;;;;;;;9.25;3.92;;;12.10;99.90;;;;;;5504640;26;20034;-77
2024/04/11 08:06:54;;;;;;;9.90;3.47;;;12.10;99.90;;;;;;5507718;26;20029;-77
2024/04/11 08:09:21;;;;;;;8.85;3.80;;;12.20;99.90;;;;;;5498091;26;20026;-77
2024/04/11 08:11:51;;;;;;;12.85;4.40;;;12.20;99.90;;;;;;5496588;26;20038;-77
2024/04/11 08:14:18;;;;;;;10.30;4.80;;;12.20;99.90;;;;;;5511734;26;20471;-77
2024/04/11 08:16:47;;;;;;;8.77;4.43;;;12.20;99.90;;;;;;5506229;26;20038;-77
2024/04/11 08:19:17;;;;;;;8.15;4.30;;;12.30;99.90;;;;;;5512402;26;20022;-77
2024/04/11 08:21:46;;;;;;;10.27;4.40;;;12.50;99.90;;;;;;5509591;26;20026;-75
2024/04/11 08:24:13;;;;;;;10.80;4.32;;;12.60;99.90;;;;;;5510653;26;20034;-76
2024/04/11 08:26:40;;;;;;;10.85;4.28;;;12.70;99.90;;;;;;5508084;26;20037;-77
2024/04/11 08:29:06;;;;;;;9.95;4.45;;;12.70;99.90;;;;;;5510344;26;20475;-76
2024/04/11 08:31:35;;;;;;;15.00;5.22;;;12.80;99.90;;;;;;5507996;26;20017;-76
2024/04/11 08:34:02;;;;;;;9.23;4.72;;;12.90;99.90;;;;;;5507214;26;20021;-77
2024/04/11 08:36:29;;;;;;;9.68;4.70;;;12.90;99.90;;;;;;5511345;26;20478;-76
2024/04/11 08:39:00;;;;;;;9.73;4.85;;;13.00;99.90;;;;;;5481620;26;20025;-76
2024/04/11 08:41:27;;;;;;;12.82;4.90;;;13.00;99.90;;;;;;5448378;26;20022;-76
2024/04/11 08:43:56;;;;;;;12.30;5.20;;;13.00;99.90;;;;;;5499651;26;20034;-75
2024/04/11 08:46:24;;;;;;;10.98;4.80;;;13.00;99.90;;;;;;5497951;26;20037;-76
2024/04/11 08:48:53;;;;;;;9.48;5.22;;;13.00;99.90;;;;;;5510882;26;20025;-76
2024/04/11 08:51:22;;;;;;;11.18;5.18;;;12.90;99.90;;;;;;5505584;26;20038;-76
2024/04/11 08:53:54;;;;;;;10.05;5.10;;;13.00;99.90;;;;;;5506067;26;20037;-75
2024/04/11 08:56:22;;;;;;;13.00;5.72;;;13.00;99.90;;;;;;5496602;26;20034;-75
2024/04/11 08:58:50;;;;;;;12.25;5.97;;;13.00;99.90;;;;;;5515228;26;20041;-75
2024/04/11 09:01:18;;;;;;;12.60;5.25;;;13.00;99.90;;;;;;5504286;26;20029;-75
2024/04/11 09:03:48;;;;;;;11.13;6.15;;;13.10;99.90;;;;;;5478084;26;20058;-75
2024/04/11 09:06:28;;;;;;;11.07;5.25;;;13.10;99.90;;;;;;5508308;26;20049;-75
2024/04/11 09:08:59;;;;;;;10.18;6.07;;;13.10;99.90;;;;;;5510986;26;20025;-75
2024/04/11 09:11:27;;;;;;;10.70;5.93;;;13.10;99.90;;;;;;5503104;26;20029;-75
2024/04/11 09:13:59;;;;;;;9.65;6.18;;;13.20;99.90;;;;;;5507596;26;20025;-75
2024/04/11 09:16:33;;;;;;;11.10;6.20;;;13.10;99.90;;;;;;5486762;26;20053;-75
2024/04/11 09:19:05;;;;;;;13.45;6.20;;;13.10;99.90;;;;;;5474424;26;20034;-75
2024/04/11 09:21:32;;;;;;;11.35;6.40;;;13.10;99.90;;;;;;5516367;26;20034;-75
2024/04/11 09:23:59;;;;;;;11.57;6.95;;;13.10;99.90;;;;;;5503001;26;20030;-75
2024/04/11 09:26:29;;;;;;;12.18;7.07;;;13.20;99.90;;;;;;5504247;26;20060;-75
2024/04/11 09:28:57;;;;;;;14.18;7.53;;;13.20;99.90;;;;;;5514248;25;20486;-75
2024/04/11 09:31:26;;;;;;;18.05;7.20;;;13.30;99.90;;;;;;5506945;26;20858;-76
2024/04/11 09:33:55;;;;;;;12.80;6.85;;;13.30;99.90;;;;;;5501306;26;20054;-75
2024/04/11 09:36:27;;;;;;;15.85;7.35;;;13.30;99.90;;;;;;5506928;26;20029;-75
2024/04/11 09:39:12;;;;;;;13.45;7.32;;;13.30;99.90;;;;;;5490209;26;20026;-75
2024/04/11 09:41:41;;;;;;;13.60;7.03;;;13.40;99.90;;;;;;5509979;26;20131;-75
2024/04/11 09:44:09;;;;;;;9.15;6.25;;;13.40;99.90;;;;;;5498873;26;20038;-75
2024/04/11 09:46:41;;;;;;;15.48;7.78;;;13.40;99.90;;;;;;5508283;26;20033;-74
2024/04/11 09:49:13;;;;;;;12.50;7.63;;;13.40;99.90;;;;;;5500941;26;20030;-74
2024/04/11 09:51:41;;;;;;;11.77;7.18;;;13.40;99.90;;;;;;5502784;26;20022;-75
2024/04/11 09:54:14;;;;;;;12.95;8.20;;;13.40;99.90;;;;;;5513239;26;19993;-75
2024/04/11 09:56:46;;;;;;;14.65;7.30;;;13.40;99.90;;;;;;5512211;26;20133;-74
2024/04/11 09:59:15;;;;;;;12.90;7.85;;;13.50;99.90;;;;;;5504546;26;20026;-75
2024/04/11 10:01:42;;;;;;;16.90;8.95;;;13.50;99.90;;;;;;5509148;26;20034;-75
2024/04/11 10:04:21;;;;;;;13.60;7.93;;;13.50;99.90;;;;;;5506201;26;20025;-74
2024/04/11 10:06:52;;;;;;;9.98;7.50;;;13.50;99.90;;;;;;5504016;26;20021;-74
2024/04/11 10:09:29;;;;;;;13.80;8.43;;;13.50;99.90;;;;;;5502412;26;20490;-75
2024/04/11 10:12:03;;;;;;;14.82;8.55;;;13.50;99.90;;;;;;5502459;26;20474;-74
2024/04/11 10:14:35;;;;;;;13.13;9.13;;;13.50;99.90;;;;;;5505293;26;20025;-74
2024/04/11 10:17:04;;;;;;;13.18;8.18;;;13.50;99.90;;;;;;5490946;26;20012;-74
2024/04/11 10:19:35;;;;;;;12.00;8.90;;;13.50;99.90;;;;;;5495165;26;20375;-75
2024/04/11 10:22:06;;;;;;;13.10;8.68;;;13.50;99.90;;;;;;5499283;26;20030;-74
2024/04/11 10:24:37;;;;;;;14.10;9.68;;;13.50;99.90;;;;;;5512041;26;20034;-74
2024/04/11 10:27:18;;;;;;;12.18;8.98;;;13.50;99.90;;;;;;5489729;26;20502;-74
2024/04/11 10:29:47;;;;;;;12.43;9.35;;;13.60;99.90;;;;;;5497855;26;20025;-74
2024/04/11 10:32:18;;;;;;;15.20;8.75;;;13.60;99.90;;;;;;5487643;26;20045;-74
2024/04/11 10:34:48;;;;;;;12.52;9.50;;;13.60;99.90;;;;;;5497847;26;20022;-74
2024/04/11 10:37:23;;;;;;;12.23;9.93;;;13.60;99.90;;;;;;5510825;26;20029;-74
2024/04/11 10:39:57;;;;;;;;;;;13.60;99.90;;;;;;5504661;26;20033;-74
2024/04/11 10:42:39;;;;;;;12.13;9.05;;;13.60;99.90;;;;;;5505180;26;19952;-74
2024/04/11 10:45:10;;;;;;;13.88;9.80;;;13.60;99.90;;;;;;5505564;26;20050;-74
2024/04/11 10:47:41;;;;;;;14.77;9.45;;;13.60;99.90;;;;;;5504364;26;20491;-74
2024/04/11 10:50:15;;;;;;;12.63;10.43;;;13.70;99.90;;;;;;5501686;26;20027;-74
2024/04/11 10:52:45;;;;;;;15.13;10.45;;;13.70;99.90;;;;;;5500313;26;19994;-74
2024/04/11 10:55:22;;;;;;;13.20;10.30;;;13.70;99.90;;;;;;5501323;26;20030;-74
2024/04/11 10:58:09;;;;;;;14.57;10.40;;;13.70;99.90;;;;;;5467286;26;19998;-75
2024/04/11 11:03:42;;;;;;;11.80;10.07;;;13.80;99.90;;;;;;5500325;26;20021;-74
2024/04/11 11:06:24;;;;;;;13.00;10.15;;;13.80;99.90;;;;;;5473101;26;20022;-75
2024/04/11 11:09:10;;;;;;;17.85;10.63;;;13.80;99.90;;;;;;5468959;26;20005;-75
2024/04/11 11:11:40;;;;;;;14.13;10.32;;;13.80;99.90;;;;;;5494296;25;20026;-74
2024/04/11 11:14:09;;;;;;;15.60;10.13;;;13.90;99.90;;;;;;5501550;26;20008;-75
2024/04/11 11:16:38;;;;;;;14.98;10.55;;;14.00;99.90;;;;;;5492961;26;20019;-74
2024/04/11 11:19:05;;;;;;;14.27;10.40;;;14.00;99.90;;;;;;5496194;26;20018;-74
2024/04/11 11:21:40;;;;;;;14.88;11.13;;;14.10;99.90;;;;;;5495458;26;20038;-75
2024/04/11 11:24:06;;;;;;;;;;;14.20;99.90;;;;;;5498760;26;20026;-75
2024/04/11 11:26:35;;;;;;;16.83;10.85;;;14.20;99.90;;;;;;5501386;26;19970;-74
2024/04/11 11:29:11;;;;;;;16.20;10.25;;;14.20;99.90;;;;;;5493431;26;20029;-74
2024/04/11 11:31:42;;;;;;;12.05;9.55;;;14.20;99.90;;;;;;5501776;26;20033;-75
2024/04/11 11:34:10;;;;;;;13.77;10.35;;;14.20;99.90;;;;;;5503313;26;20033;-73
2024/04/11 11:36:44;;;;;;;12.02;10.57;;;14.20;99.90;;;;;;5500038;26;20490;-74
2024/04/11 11:39:18;;;;;;;13.52;10.55;;;14.20;99.90;;;;;;5502142;26;20099;-74
2024/04/11 11:41:48;;;;;;;13.20;10.60;;;14.20;99.90;;;;;;5501883;26;20486;-75
2024/04/11 11:44:21;;;;;;;13.57;10.32;;;14.20;99.90;;;;;;5506625;26;20372;-75
2024/04/11 11:47:06;;;;;;;16.48;11.43;;;14.20;99.90;;;;;;5494953;26;20022;-74
2024/04/11 11:49:37;;;;;;;15.80;12.02;;;14.30;99.90;;;;;;5506589;26;20026;-74
2024/04/11 11:52:05;;;;;;;15.57;10.90;;;14.40;99.90;;;;;;5506035;26;20030;-74
2024/04/11 11:54:35;;;;;;;10.90;9.65;;;14.40;99.90;;;;;;5509724;26;20471;-74
2024/04/11 11:57:17;;;;;;;13.10;10.15;;;14.40;99.90;;;;;;5492200;26;20030;-75
2024/04/11 11:59:45;;;;;;;12.13;10.82;;;14.40;99.90;;;;;;5485142;26;20025;-75
2024/04/11 12:02:15;;;;;;;10.10;8.88;;;14.50;99.90;;;;;;5493259;26;20038;-75
2024/04/11 12:04:45;;;;;;;9.75;8.77;;;14.50;99.90;;;;;;5508397;26;20029;-74
2024/04/11 12:07:13;;;;;;;9.95;8.35;;;14.60;99.90;;;;;;5480819;26;20388;-75
2024/04/11 12:09:43;;;;;;;9.98;8.60;;;14.50;99.90;;;;;;5489119;26;20022;-75
2024/04/11 12:12:30;;;;;;;10.85;9.02;;;14.60;99.90;;;;;;5467601;26;20021;-74
2024/04/11 12:15:01;;;;;;;9.32;8.43;;;14.50;99.90;;;;;;5502098;26;20027;-75
2024/04/11 12:17:28;;;;;;;9.65;8.75;;;14.60;99.90;;;;;;5496479;26;20053;-75
2024/04/11 12:20:05;;;;;;;9.70;7.85;;;14.50;99.90;;;;;;5501041;26;20026;-75
2024/04/11 12:22:35;;;;;;;10.88;9.60;;;14.50;99.90;;;;;;5478307;26;20037;-75
2024/04/11 12:25:03;;;;;;;9.40;8.40;;;14.50;99.90;;;;;;5506382;26;20035;-75
2024/04/11 12:27:30;;;;;;;9.85;8.95;;;14.50;99.90;;;;;;5505055;26;20026;-75
2024/04/11 12:30:01;;;;;;;8.38;7.57;;;14.50;99.90;;;;;;5476133;26;20029;-75
2024/04/11 12:32:30;;;;;;;9.45;8.55;;;14.60;99.90;;;;;;5501139;26;20029;-75
2024/04/11 12:34:57;;;;;;;8.73;7.75;;;14.60;99.90;;;;;;5506238;26;20030;-75
2024/04/11 12:37:25;;;;;;;7.60;6.90;;;14.60;99.90;;;;;;5473563;26;20340;-75
2024/04/11 12:39:53;;;;;;;8.45;7.53;;;14.50;99.90;;;;;;5501795;26;20030;-75
2024/04/11 12:42:22;;;;;;;8.25;7.55;;;14.50;99.90;;;;;;5494642;26;20026;-74
2024/04/11 12:44:55;;;;;;;8.95;8.13;;;14.50;99.90;;;;;;5502987;26;20034;-75
2024/04/11 12:47:48;;;;;;;8.57;7.77;;;14.50;99.90;;;;;;5474956;26;20489;-75
2024/04/11 12:50:21;;;;;;;10.50;9.50;;;14.50;99.90;;;;;;5498528;26;20030;-75
2024/04/11 12:52:49;;;;;;;9.13;8.23;;;14.50;99.90;;;;;;5504188;26;20037;-75
2024/04/11 12:55:24;;;;;;;9.82;8.73;;;14.60;99.90;;;;;;5480662;26;20009;-75
2024/04/11 12:57:52;;;;;;;11.40;10.20;;;14.60;99.90;;;;;;5495667;26;20022;-75